sensor_id;sensor_type;location;lat;lon;timestamp;P1;durP1;ratioP1;P2;durP2;ratioP2
55065;SDS011;40964;42.114;24.220;2022-12-18T00:00:44;18.88;;;8.88;;
55065;SDS011;40964;42.114;24.220;2022-12-18T00:03:12;16.77;;;7.28;;
55065;SDS011;40964;42.114;24.220;2022-12-18T00:05:45;13.55;;;6.78;;
55065;SDS011;40964;42.114;24.220;2022-12-18T00:08:15;12.43;;;5.90;;
55065;SDS011;40964;42.114;24.220;2022-12-18T00:10:42;15.63;;;6.97;;
55065;SDS011;40964;42.114;24.220;2022-12-18T00:13:08;13.98;;;6.75;;
55065;SDS011;40964;42.114;24.220;2022-12-18T00:15:34;15.68;;;7.03;;
55065;SDS011;40964;42.114;24.220;2022-12-18T00:18:00;17.98;;;6.78;;
55065;SDS011;40964;42.114;24.220;2022-12-18T00:20:26;13.93;;;6.78;;
55065;SDS011;40964;42.114;24.220;2022-12-18T00:22:52;17.83;;;6.15;;
55065;SDS011;40964;42.114;24.220;2022-12-18T00:25:18;13.77;;;6.07;;
55065;SDS011;40964;42.114;24.220;2022-12-18T00:27:43;13.60;;;6.35;;
55065;SDS011;40964;42.114;24.220;2022-12-18T00:30:09;13.05;;;6.50;;
55065;SDS011;40964;42.114;24.220;2022-12-18T00:32:35;12.38;;;6.30;;
55065;SDS011;40964;42.114;24.220;2022-12-18T00:35:00;12.63;;;5.35;;
55065;SDS011;40964;42.114;24.220;2022-12-18T00:37:26;11.55;;;5.65;;
55065;SDS011;40964;42.114;24.220;2022-12-18T00:39:52;12.27;;;5.85;;
55065;SDS011;40964;42.114;24.220;2022-12-18T00:42:17;11.40;;;5.80;;
55065;SDS011;40964;42.114;24.220;2022-12-18T00:45:01;9.75;;;4.90;;
55065;SDS011;40964;42.114;24.220;2022-12-18T00:47:28;7.88;;;4.28;;
55065;SDS011;40964;42.114;24.220;2022-12-18T00:49:53;14.00;;;6.65;;
55065;SDS011;40964;42.114;24.220;2022-12-18T00:52:19;14.82;;;7.30;;
55065;SDS011;40964;42.114;24.220;2022-12-18T00:54:44;23.27;;;10.82;;
55065;SDS011;40964;42.114;24.220;2022-12-18T00:57:10;23.02;;;10.90;;
55065;SDS011;40964;42.114;24.220;2022-12-18T00:59:35;28.20;;;11.93;;
55065;SDS011;40964;42.114;24.220;2022-12-18T01:02:01;21.20;;;10.20;;
55065;SDS011;40964;42.114;24.220;2022-12-18T01:04:26;23.08;;;10.10;;
55065;SDS011;40964;42.114;24.220;2022-12-18T01:06:52;25.25;;;10.82;;
55065;SDS011;40964;42.114;24.220;2022-12-18T01:09:17;23.73;;;10.70;;
55065;SDS011;40964;42.114;24.220;2022-12-18T01:11:43;25.02;;;10.98;;
55065;SDS011;40964;42.114;24.220;2022-12-18T01:14:08;24.25;;;9.82;;
55065;SDS011;40964;42.114;24.220;2022-12-18T01:16:35;17.85;;;7.95;;
55065;SDS011;40964;42.114;24.220;2022-12-18T01:19:00;14.38;;;6.80;;
55065;SDS011;40964;42.114;24.220;2022-12-18T01:21:26;65.57;;;20.80;;
55065;SDS011;40964;42.114;24.220;2022-12-18T01:23:52;35.17;;;14.38;;
55065;SDS011;40964;42.114;24.220;2022-12-18T01:26:19;76.90;;;29.95;;
55065;SDS011;40964;42.114;24.220;2022-12-18T01:28:44;38.97;;;17.90;;
55065;SDS011;40964;42.114;24.220;2022-12-18T01:33:35;24.85;;;10.30;;
55065;SDS011;40964;42.114;24.220;2022-12-18T01:36:01;22.85;;;9.10;;
55065;SDS011;40964;42.114;24.220;2022-12-18T01:38:28;16.48;;;7.32;;
55065;SDS011;40964;42.114;24.220;2022-12-18T01:40:57;13.15;;;6.65;;
55065;SDS011;40964;42.114;24.220;2022-12-18T01:43:40;23.88;;;7.20;;
55065;SDS011;40964;42.114;24.220;2022-12-18T01:46:14;13.70;;;6.47;;
55065;SDS011;40964;42.114;24.220;2022-12-18T01:48:40;13.20;;;5.18;;
55065;SDS011;40964;42.114;24.220;2022-12-18T01:51:07;13.40;;;6.25;;
55065;SDS011;40964;42.114;24.220;2022-12-18T01:53:35;13.45;;;6.47;;
55065;SDS011;40964;42.114;24.220;2022-12-18T01:56:02;18.05;;;8.10;;
55065;SDS011;40964;42.114;24.220;2022-12-18T02:01:12;24.25;;;8.38;;
55065;SDS011;40964;42.114;24.220;2022-12-18T02:03:40;20.20;;;9.82;;
55065;SDS011;40964;42.114;24.220;2022-12-18T02:06:13;26.63;;;12.70;;
55065;SDS011;40964;42.114;24.220;2022-12-18T02:09:05;30.00;;;14.65;;
55065;SDS011;40964;42.114;24.220;2022-12-18T02:11:46;22.63;;;11.95;;
55065;SDS011;40964;42.114;24.220;2022-12-18T02:14:19;28.05;;;13.30;;
55065;SDS011;40964;42.114;24.220;2022-12-18T02:17:19;19.48;;;9.27;;
55065;SDS011;40964;42.114;24.220;2022-12-18T02:19:53;20.85;;;10.00;;
55065;SDS011;40964;42.114;24.220;2022-12-18T02:22:40;18.75;;;9.10;;
55065;SDS011;40964;42.114;24.220;2022-12-18T02:28:05;14.23;;;6.53;;
55065;SDS011;40964;42.114;24.220;2022-12-18T02:30:35;14.23;;;7.10;;
55065;SDS011;40964;42.114;24.220;2022-12-18T02:33:04;15.98;;;7.78;;
55065;SDS011;40964;42.114;24.220;2022-12-18T02:35:32;18.20;;;7.90;;
55065;SDS011;40964;42.114;24.220;2022-12-18T02:37:59;17.20;;;7.78;;
55065;SDS011;40964;42.114;24.220;2022-12-18T02:40:26;14.88;;;7.20;;
55065;SDS011;40964;42.114;24.220;2022-12-18T02:42:53;12.50;;;5.50;;
55065;SDS011;40964;42.114;24.220;2022-12-18T02:45:18;13.48;;;5.97;;
55065;SDS011;40964;42.114;24.220;2022-12-18T02:47:45;14.73;;;7.10;;
55065;SDS011;40964;42.114;24.220;2022-12-18T02:58:27;15.20;;;7.10;;
55065;SDS011;40964;42.114;24.220;2022-12-18T03:03:48;14.05;;;7.38;;
55065;SDS011;40964;42.114;24.220;2022-12-18T03:09:11;19.00;;;8.60;;
55065;SDS011;40964;42.114;24.220;2022-12-18T03:11:44;23.50;;;9.20;;
55065;SDS011;40964;42.114;24.220;2022-12-18T03:14:38;21.63;;;9.45;;
55065;SDS011;40964;42.114;24.220;2022-12-18T03:17:07;22.70;;;10.13;;
55065;SDS011;40964;42.114;24.220;2022-12-18T03:19:40;19.27;;;8.85;;
55065;SDS011;40964;42.114;24.220;2022-12-18T03:22:08;23.08;;;8.45;;
55065;SDS011;40964;42.114;24.220;2022-12-18T03:24:35;18.35;;;9.43;;
55065;SDS011;40964;42.114;24.220;2022-12-18T03:27:05;18.90;;;8.98;;
55065;SDS011;40964;42.114;24.220;2022-12-18T03:29:36;18.77;;;9.18;;
55065;SDS011;40964;42.114;24.220;2022-12-18T03:32:30;39.13;;;15.18;;
55065;SDS011;40964;42.114;24.220;2022-12-18T03:35:03;57.70;;;22.17;;
55065;SDS011;40964;42.114;24.220;2022-12-18T03:37:30;32.53;;;15.23;;
55065;SDS011;40964;42.114;24.220;2022-12-18T03:39:56;18.30;;;8.52;;
55065;SDS011;40964;42.114;24.220;2022-12-18T03:45:26;18.05;;;7.80;;
55065;SDS011;40964;42.114;24.220;2022-12-18T03:47:58;26.25;;;7.38;;
55065;SDS011;40964;42.114;24.220;2022-12-18T03:50:27;15.95;;;7.45;;
55065;SDS011;40964;42.114;24.220;2022-12-18T03:55:45;17.85;;;7.10;;
55065;SDS011;40964;42.114;24.220;2022-12-18T03:58:13;10.20;;;5.32;;
55065;SDS011;40964;42.114;24.220;2022-12-18T04:00:42;23.38;;;7.28;;
55065;SDS011;40964;42.114;24.220;2022-12-18T04:03:09;15.80;;;7.03;;
55065;SDS011;40964;42.114;24.220;2022-12-18T04:05:36;13.23;;;6.32;;
55065;SDS011;40964;42.114;24.220;2022-12-18T04:08:02;15.35;;;6.70;;
55065;SDS011;40964;42.114;24.220;2022-12-18T04:10:29;15.95;;;7.35;;
55065;SDS011;40964;42.114;24.220;2022-12-18T04:12:58;15.73;;;7.38;;
55065;SDS011;40964;42.114;24.220;2022-12-18T04:15:23;21.77;;;9.82;;
55065;SDS011;40964;42.114;24.220;2022-12-18T04:17:49;24.15;;;9.23;;
55065;SDS011;40964;42.114;24.220;2022-12-18T04:20:15;20.80;;;10.05;;
55065;SDS011;40964;42.114;24.220;2022-12-18T04:22:41;19.73;;;8.85;;
55065;SDS011;40964;42.114;24.220;2022-12-18T04:25:07;19.45;;;8.43;;
55065;SDS011;40964;42.114;24.220;2022-12-18T04:27:33;30.83;;;11.43;;
55065;SDS011;40964;42.114;24.220;2022-12-18T04:29:59;33.22;;;15.20;;
55065;SDS011;40964;42.114;24.220;2022-12-18T04:32:25;28.67;;;12.55;;
55065;SDS011;40964;42.114;24.220;2022-12-18T04:34:50;24.45;;;12.38;;
55065;SDS011;40964;42.114;24.220;2022-12-18T04:37:16;31.05;;;14.38;;
55065;SDS011;40964;42.114;24.220;2022-12-18T04:39:41;30.98;;;13.10;;
55065;SDS011;40964;42.114;24.220;2022-12-18T04:42:06;20.35;;;9.55;;
55065;SDS011;40964;42.114;24.220;2022-12-18T04:44:32;35.72;;;14.70;;
55065;SDS011;40964;42.114;24.220;2022-12-18T04:46:57;22.27;;;10.82;;
55065;SDS011;40964;42.114;24.220;2022-12-18T04:49:23;25.85;;;9.88;;
55065;SDS011;40964;42.114;24.220;2022-12-18T04:51:48;21.08;;;7.78;;
55065;SDS011;40964;42.114;24.220;2022-12-18T04:54:14;18.08;;;8.48;;
55065;SDS011;40964;42.114;24.220;2022-12-18T04:56:39;26.77;;;8.75;;
55065;SDS011;40964;42.114;24.220;2022-12-18T04:59:05;25.13;;;8.82;;
55065;SDS011;40964;42.114;24.220;2022-12-18T05:01:33;18.30;;;8.60;;
55065;SDS011;40964;42.114;24.220;2022-12-18T05:03:59;18.50;;;8.77;;
55065;SDS011;40964;42.114;24.220;2022-12-18T05:06:25;17.75;;;8.18;;
55065;SDS011;40964;42.114;24.220;2022-12-18T05:08:50;18.10;;;8.32;;
55065;SDS011;40964;42.114;24.220;2022-12-18T05:11:16;23.92;;;10.20;;
55065;SDS011;40964;42.114;24.220;2022-12-18T05:13:42;32.20;;;14.18;;
55065;SDS011;40964;42.114;24.220;2022-12-18T05:16:09;21.13;;;10.25;;
55065;SDS011;40964;42.114;24.220;2022-12-18T05:18:35;25.52;;;10.68;;
55065;SDS011;40964;42.114;24.220;2022-12-18T05:21:01;18.23;;;9.02;;
55065;SDS011;40964;42.114;24.220;2022-12-18T05:23:27;15.70;;;8.60;;
55065;SDS011;40964;42.114;24.220;2022-12-18T05:25:53;29.05;;;10.68;;
55065;SDS011;40964;42.114;24.220;2022-12-18T05:28:20;20.10;;;9.65;;
55065;SDS011;40964;42.114;24.220;2022-12-18T05:30:48;22.70;;;10.32;;
55065;SDS011;40964;42.114;24.220;2022-12-18T05:33:18;19.48;;;9.55;;
55065;SDS011;40964;42.114;24.220;2022-12-18T05:35:49;22.88;;;10.65;;
55065;SDS011;40964;42.114;24.220;2022-12-18T05:38:15;72.18;;;44.45;;
55065;SDS011;40964;42.114;24.220;2022-12-18T05:40:41;36.58;;;17.17;;
55065;SDS011;40964;42.114;24.220;2022-12-18T05:43:08;25.10;;;13.10;;
55065;SDS011;40964;42.114;24.220;2022-12-18T05:45:36;21.67;;;10.73;;
55065;SDS011;40964;42.114;24.220;2022-12-18T05:48:05;18.27;;;8.60;;
55065;SDS011;40964;42.114;24.220;2022-12-18T05:50:35;18.30;;;7.72;;
55065;SDS011;40964;42.114;24.220;2022-12-18T05:53:02;23.40;;;9.38;;
55065;SDS011;40964;42.114;24.220;2022-12-18T05:55:28;22.50;;;9.27;;
55065;SDS011;40964;42.114;24.220;2022-12-18T05:57:53;19.02;;;9.35;;
55065;SDS011;40964;42.114;24.220;2022-12-18T06:00:19;21.83;;;9.57;;
55065;SDS011;40964;42.114;24.220;2022-12-18T06:02:47;15.65;;;7.80;;
55065;SDS011;40964;42.114;24.220;2022-12-18T06:05:13;18.73;;;7.63;;
55065;SDS011;40964;42.114;24.220;2022-12-18T06:07:39;20.20;;;8.80;;
55065;SDS011;40964;42.114;24.220;2022-12-18T06:10:04;16.40;;;8.73;;
55065;SDS011;40964;42.114;24.220;2022-12-18T06:12:30;18.42;;;8.98;;
55065;SDS011;40964;42.114;24.220;2022-12-18T06:14:56;15.20;;;6.95;;
55065;SDS011;40964;42.114;24.220;2022-12-18T06:17:21;17.45;;;8.65;;
55065;SDS011;40964;42.114;24.220;2022-12-18T06:19:47;19.92;;;10.50;;
55065;SDS011;40964;42.114;24.220;2022-12-18T06:22:12;29.98;;;14.00;;
55065;SDS011;40964;42.114;24.220;2022-12-18T06:24:38;23.80;;;10.40;;
55065;SDS011;40964;42.114;24.220;2022-12-18T06:27:03;20.80;;;8.43;;
55065;SDS011;40964;42.114;24.220;2022-12-18T06:29:28;15.73;;;6.88;;
55065;SDS011;40964;42.114;24.220;2022-12-18T06:31:54;13.18;;;6.72;;
55065;SDS011;40964;42.114;24.220;2022-12-18T06:34:19;18.20;;;7.97;;
55065;SDS011;40964;42.114;24.220;2022-12-18T06:36:45;12.82;;;7.00;;
55065;SDS011;40964;42.114;24.220;2022-12-18T06:39:10;19.35;;;7.35;;
55065;SDS011;40964;42.114;24.220;2022-12-18T06:41:36;15.02;;;7.03;;
55065;SDS011;40964;42.114;24.220;2022-12-18T06:44:01;13.18;;;6.38;;
55065;SDS011;40964;42.114;24.220;2022-12-18T06:46:28;16.02;;;6.70;;
55065;SDS011;40964;42.114;24.220;2022-12-18T06:48:53;15.40;;;7.90;;
55065;SDS011;40964;42.114;24.220;2022-12-18T06:51:22;14.35;;;6.55;;
55065;SDS011;40964;42.114;24.220;2022-12-18T06:53:48;14.77;;;7.20;;
55065;SDS011;40964;42.114;24.220;2022-12-18T06:56:15;18.40;;;8.80;;
55065;SDS011;40964;42.114;24.220;2022-12-18T06:58:40;22.40;;;11.43;;
55065;SDS011;40964;42.114;24.220;2022-12-18T07:01:08;19.30;;;9.88;;
55065;SDS011;40964;42.114;24.220;2022-12-18T07:03:35;21.48;;;10.00;;
55065;SDS011;40964;42.114;24.220;2022-12-18T07:06:02;26.67;;;11.20;;
55065;SDS011;40964;42.114;24.220;2022-12-18T07:08:28;27.90;;;13.15;;
55065;SDS011;40964;42.114;24.220;2022-12-18T07:10:55;22.23;;;10.27;;
55065;SDS011;40964;42.114;24.220;2022-12-18T07:13:20;32.33;;;14.50;;
55065;SDS011;40964;42.114;24.220;2022-12-18T07:15:46;43.75;;;17.80;;
55065;SDS011;40964;42.114;24.220;2022-12-18T07:18:11;53.15;;;21.05;;
55065;SDS011;40964;42.114;24.220;2022-12-18T07:20:37;40.55;;;18.63;;
55065;SDS011;40964;42.114;24.220;2022-12-18T07:23:03;48.33;;;21.95;;
55065;SDS011;40964;42.114;24.220;2022-12-18T07:25:30;27.23;;;13.27;;
55065;SDS011;40964;42.114;24.220;2022-12-18T07:27:59;24.40;;;12.10;;
55065;SDS011;40964;42.114;24.220;2022-12-18T07:30:25;39.95;;;19.58;;
55065;SDS011;40964;42.114;24.220;2022-12-18T07:32:50;38.30;;;17.80;;
55065;SDS011;40964;42.114;24.220;2022-12-18T07:35:16;22.70;;;11.50;;
55065;SDS011;40964;42.114;24.220;2022-12-18T07:37:41;24.00;;;12.45;;
55065;SDS011;40964;42.114;24.220;2022-12-18T07:40:07;28.23;;;14.55;;
55065;SDS011;40964;42.114;24.220;2022-12-18T07:42:33;27.45;;;14.07;;
55065;SDS011;40964;42.114;24.220;2022-12-18T07:44:59;27.27;;;14.25;;
55065;SDS011;40964;42.114;24.220;2022-12-18T07:47:26;32.15;;;13.40;;
55065;SDS011;40964;42.114;24.220;2022-12-18T07:49:52;25.25;;;13.48;;
55065;SDS011;40964;42.114;24.220;2022-12-18T07:52:17;25.45;;;11.48;;
55065;SDS011;40964;42.114;24.220;2022-12-18T07:54:43;32.45;;;14.27;;
55065;SDS011;40964;42.114;24.220;2022-12-18T07:57:08;63.58;;;26.63;;
55065;SDS011;40964;42.114;24.220;2022-12-18T07:59:34;35.72;;;15.23;;
55065;SDS011;40964;42.114;24.220;2022-12-18T08:02:00;22.27;;;11.00;;
55065;SDS011;40964;42.114;24.220;2022-12-18T08:04:26;13.82;;;6.65;;
55065;SDS011;40964;42.114;24.220;2022-12-18T08:06:51;14.10;;;7.45;;
55065;SDS011;40964;42.114;24.220;2022-12-18T08:09:17;24.02;;;8.13;;
55065;SDS011;40964;42.114;24.220;2022-12-18T08:11:42;13.23;;;7.10;;
55065;SDS011;40964;42.114;24.220;2022-12-18T08:14:08;12.35;;;5.70;;
55065;SDS011;40964;42.114;24.220;2022-12-18T08:16:34;11.63;;;6.57;;
55065;SDS011;40964;42.114;24.220;2022-12-18T08:18:59;14.27;;;6.75;;
55065;SDS011;40964;42.114;24.220;2022-12-18T08:21:26;23.65;;;8.90;;
55065;SDS011;40964;42.114;24.220;2022-12-18T08:23:55;35.22;;;18.38;;
55065;SDS011;40964;42.114;24.220;2022-12-18T08:26:22;44.67;;;17.30;;
55065;SDS011;40964;42.114;24.220;2022-12-18T08:28:48;19.88;;;8.95;;
55065;SDS011;40964;42.114;24.220;2022-12-18T08:31:15;18.23;;;8.30;;
55065;SDS011;40964;42.114;24.220;2022-12-18T08:33:40;13.23;;;7.05;;
55065;SDS011;40964;42.114;24.220;2022-12-18T08:36:07;25.90;;;11.75;;
55065;SDS011;40964;42.114;24.220;2022-12-18T08:38:34;22.27;;;10.05;;
55065;SDS011;40964;42.114;24.220;2022-12-18T08:41:06;11.27;;;6.72;;
55065;SDS011;40964;42.114;24.220;2022-12-18T08:43:34;14.27;;;7.07;;
55065;SDS011;40964;42.114;24.220;2022-12-18T08:46:18;16.95;;;8.77;;
55065;SDS011;40964;42.114;24.220;2022-12-18T08:48:45;15.23;;;7.10;;
55065;SDS011;40964;42.114;24.220;2022-12-18T08:51:11;16.92;;;8.23;;
55065;SDS011;40964;42.114;24.220;2022-12-18T08:53:37;18.75;;;8.98;;
55065;SDS011;40964;42.114;24.220;2022-12-18T08:56:03;23.17;;;11.05;;
55065;SDS011;40964;42.114;24.220;2022-12-18T08:58:29;18.67;;;10.15;;
55065;SDS011;40964;42.114;24.220;2022-12-18T09:01:05;25.25;;;11.18;;
55065;SDS011;40964;42.114;24.220;2022-12-18T09:03:32;15.60;;;8.82;;
55065;SDS011;40964;42.114;24.220;2022-12-18T09:05:58;46.00;;;17.77;;
55065;SDS011;40964;42.114;24.220;2022-12-18T09:08:24;41.33;;;15.07;;
55065;SDS011;40964;42.114;24.220;2022-12-18T09:10:50;33.28;;;14.05;;
55065;SDS011;40964;42.114;24.220;2022-12-18T09:13:16;49.47;;;19.33;;
55065;SDS011;40964;42.114;24.220;2022-12-18T09:15:49;13.70;;;6.53;;
55065;SDS011;40964;42.114;24.220;2022-12-18T09:18:17;14.02;;;6.70;;
55065;SDS011;40964;42.114;24.220;2022-12-18T09:20:45;5.82;;;4.20;;
55065;SDS011;40964;42.114;24.220;2022-12-18T09:23:11;7.93;;;4.40;;
55065;SDS011;40964;42.114;24.220;2022-12-18T09:25:37;13.40;;;4.60;;
55065;SDS011;40964;42.114;24.220;2022-12-18T09:28:04;8.30;;;3.42;;
55065;SDS011;40964;42.114;24.220;2022-12-18T09:30:31;6.75;;;3.58;;
55065;SDS011;40964;42.114;24.220;2022-12-18T09:32:58;6.78;;;3.35;;
55065;SDS011;40964;42.114;24.220;2022-12-18T09:35:24;6.10;;;3.55;;
55065;SDS011;40964;42.114;24.220;2022-12-18T09:37:50;8.20;;;3.97;;
55065;SDS011;40964;42.114;24.220;2022-12-18T09:40:16;12.18;;;3.67;;
55065;SDS011;40964;42.114;24.220;2022-12-18T09:42:45;6.85;;;4.00;;
55065;SDS011;40964;42.114;24.220;2022-12-18T09:45:16;12.30;;;6.25;;
55065;SDS011;40964;42.114;24.220;2022-12-18T09:47:42;5.22;;;3.08;;
55065;SDS011;40964;42.114;24.220;2022-12-18T09:50:20;7.93;;;4.57;;
55065;SDS011;40964;42.114;24.220;2022-12-18T09:52:53;7.63;;;3.70;;
55065;SDS011;40964;42.114;24.220;2022-12-18T09:55:24;7.88;;;4.18;;
55065;SDS011;40964;42.114;24.220;2022-12-18T09:57:56;6.28;;;2.97;;
55065;SDS011;40964;42.114;24.220;2022-12-18T10:00:27;11.30;;;5.75;;
55065;SDS011;40964;42.114;24.220;2022-12-18T10:02:57;11.23;;;4.80;;
55065;SDS011;40964;42.114;24.220;2022-12-18T10:11:22;14.93;;;6.85;;
55065;SDS011;40964;42.114;24.220;2022-12-18T10:13:52;6.78;;;3.92;;
55065;SDS011;40964;42.114;24.220;2022-12-18T10:19:18;14.55;;;6.68;;
55065;SDS011;40964;42.114;24.220;2022-12-18T10:27:44;11.15;;;5.93;;
55065;SDS011;40964;42.114;24.220;2022-12-18T10:30:15;9.85;;;4.30;;
55065;SDS011;40964;42.114;24.220;2022-12-18T10:33:05;10.35;;;5.03;;
55065;SDS011;40964;42.114;24.220;2022-12-18T10:35:52;10.40;;;4.60;;
55065;SDS011;40964;42.114;24.220;2022-12-18T10:38:37;12.90;;;5.93;;
55065;SDS011;40964;42.114;24.220;2022-12-18T10:44:15;11.88;;;6.43;;
55065;SDS011;40964;42.114;24.220;2022-12-18T10:47:04;9.75;;;5.50;;
55065;SDS011;40964;42.114;24.220;2022-12-18T10:49:54;23.30;;;10.00;;
55065;SDS011;40964;42.114;24.220;2022-12-18T10:52:39;9.63;;;4.40;;
55065;SDS011;40964;42.114;24.220;2022-12-18T10:55:04;16.05;;;5.68;;
55065;SDS011;40964;42.114;24.220;2022-12-18T10:57:37;9.27;;;4.47;;
55065;SDS011;40964;42.114;24.220;2022-12-18T11:02:48;10.67;;;4.60;;
55065;SDS011;40964;42.114;24.220;2022-12-18T11:05:30;12.60;;;6.35;;
55065;SDS011;40964;42.114;24.220;2022-12-18T11:07:59;9.02;;;4.70;;
55065;SDS011;40964;42.114;24.220;2022-12-18T11:10:30;10.77;;;5.15;;
55065;SDS011;40964;42.114;24.220;2022-12-18T11:13:16;10.95;;;5.38;;
55065;SDS011;40964;42.114;24.220;2022-12-18T11:15:45;10.63;;;5.80;;
55065;SDS011;40964;42.114;24.220;2022-12-18T11:18:30;9.90;;;5.20;;
55065;SDS011;40964;42.114;24.220;2022-12-18T11:21:08;13.40;;;5.97;;
55065;SDS011;40964;42.114;24.220;2022-12-18T11:23:36;11.57;;;5.80;;
55065;SDS011;40964;42.114;24.220;2022-12-18T11:26:09;10.68;;;5.80;;
55065;SDS011;40964;42.114;24.220;2022-12-18T11:33:41;13.63;;;6.20;;
55065;SDS011;40964;42.114;24.220;2022-12-18T11:36:09;12.70;;;5.82;;
55065;SDS011;40964;42.114;24.220;2022-12-18T11:38:39;11.90;;;6.63;;
55065;SDS011;40964;42.114;24.220;2022-12-18T11:41:19;11.32;;;6.10;;
55065;SDS011;40964;42.114;24.220;2022-12-18T11:44:22;11.40;;;6.50;;
55065;SDS011;40964;42.114;24.220;2022-12-18T11:47:00;11.63;;;6.18;;
55065;SDS011;40964;42.114;24.220;2022-12-18T11:49:37;11.70;;;5.45;;
55065;SDS011;40964;42.114;24.220;2022-12-18T11:52:19;13.73;;;7.18;;
55065;SDS011;40964;42.114;24.220;2022-12-18T11:54:55;10.02;;;5.15;;
55065;SDS011;40964;42.114;24.220;2022-12-18T11:57:39;12.02;;;5.53;;
55065;SDS011;40964;42.114;24.220;2022-12-18T12:00:27;11.55;;;6.18;;
55065;SDS011;40964;42.114;24.220;2022-12-18T12:08:05;14.88;;;6.28;;
55065;SDS011;40964;42.114;24.220;2022-12-18T12:10:37;12.75;;;6.38;;
55065;SDS011;40964;42.114;24.220;2022-12-18T12:21:24;13.13;;;6.68;;
55065;SDS011;40964;42.114;24.220;2022-12-18T12:30:04;9.10;;;4.82;;
55065;SDS011;40964;42.114;24.220;2022-12-18T12:35:29;15.25;;;4.93;;
55065;SDS011;40964;42.114;24.220;2022-12-18T12:38:20;3.97;;;2.58;;
55065;SDS011;40964;42.114;24.220;2022-12-18T12:40:54;12.18;;;5.15;;
55065;SDS011;40964;42.114;24.220;2022-12-18T12:45:57;7.68;;;3.75;;
55065;SDS011;40964;42.114;24.220;2022-12-18T12:48:33;12.02;;;3.85;;
55065;SDS011;40964;42.114;24.220;2022-12-18T12:51:30;7.07;;;4.25;;
55065;SDS011;40964;42.114;24.220;2022-12-18T12:53:57;7.97;;;3.95;;
55065;SDS011;40964;42.114;24.220;2022-12-18T12:56:26;14.10;;;4.97;;
55065;SDS011;40964;42.114;24.220;2022-12-18T13:01:39;14.98;;;6.50;;
55065;SDS011;40964;42.114;24.220;2022-12-18T13:04:23;9.23;;;4.72;;
55065;SDS011;40964;42.114;24.220;2022-12-18T13:23:26;6.30;;;3.83;;
55065;SDS011;40964;42.114;24.220;2022-12-18T13:25:55;10.15;;;4.15;;
55065;SDS011;40964;42.114;24.220;2022-12-18T13:28:49;10.75;;;5.03;;
55065;SDS011;40964;42.114;24.220;2022-12-18T13:32:00;9.23;;;4.88;;
55065;SDS011;40964;42.114;24.220;2022-12-18T13:36:42;11.73;;;5.13;;
55065;SDS011;40964;42.114;24.220;2022-12-18T13:41:34;10.70;;;5.30;;
55065;SDS011;40964;42.114;24.220;2022-12-18T13:46:58;8.35;;;3.88;;
55065;SDS011;40964;42.114;24.220;2022-12-18T13:49:38;11.45;;;4.30;;
55065;SDS011;40964;42.114;24.220;2022-12-18T13:52:16;9.18;;;4.15;;
55065;SDS011;40964;42.114;24.220;2022-12-18T13:54:43;11.23;;;5.32;;
55065;SDS011;40964;42.114;24.220;2022-12-18T14:02:49;10.30;;;5.20;;
55065;SDS011;40964;42.114;24.220;2022-12-18T14:05:28;12.30;;;4.22;;
55065;SDS011;40964;42.114;24.220;2022-12-18T14:07:58;10.40;;;5.63;;
55065;SDS011;40964;42.114;24.220;2022-12-18T14:10:34;13.00;;;5.68;;
55065;SDS011;40964;42.114;24.220;2022-12-18T14:13:05;11.43;;;4.93;;
55065;SDS011;40964;42.114;24.220;2022-12-18T14:15:34;11.10;;;5.78;;
55065;SDS011;40964;42.114;24.220;2022-12-18T14:20:44;9.80;;;4.75;;
55065;SDS011;40964;42.114;24.220;2022-12-18T14:25:59;10.50;;;4.95;;
55065;SDS011;40964;42.114;24.220;2022-12-18T14:28:25;10.98;;;4.80;;
55065;SDS011;40964;42.114;24.220;2022-12-18T14:30:51;7.50;;;4.18;;
55065;SDS011;40964;42.114;24.220;2022-12-18T14:33:19;4.85;;;2.80;;
55065;SDS011;40964;42.114;24.220;2022-12-18T14:40:54;7.95;;;3.70;;
55065;SDS011;40964;42.114;24.220;2022-12-18T14:43:24;12.30;;;4.70;;
55065;SDS011;40964;42.114;24.220;2022-12-18T14:45:50;20.30;;;12.00;;
55065;SDS011;40964;42.114;24.220;2022-12-18T14:51:04;13.88;;;6.40;;
55065;SDS011;40964;42.114;24.220;2022-12-18T14:53:45;25.95;;;13.63;;
55065;SDS011;40964;42.114;24.220;2022-12-18T14:58:58;28.63;;;12.05;;
55065;SDS011;40964;42.114;24.220;2022-12-18T15:01:32;28.67;;;9.88;;
55065;SDS011;40964;42.114;24.220;2022-12-18T15:04:03;9.90;;;4.63;;
55065;SDS011;40964;42.114;24.220;2022-12-18T15:06:34;11.60;;;4.53;;
55065;SDS011;40964;42.114;24.220;2022-12-18T15:09:44;9.15;;;4.43;;
55065;SDS011;40964;42.114;24.220;2022-12-18T15:11:55;6.20;;;3.60;;
55065;SDS011;40964;42.114;24.220;2022-12-18T15:14:38;6.03;;;3.33;;
55065;SDS011;40964;42.114;24.220;2022-12-18T15:17:16;5.85;;;2.95;;
55065;SDS011;40964;42.114;24.220;2022-12-18T15:19:44;7.13;;;3.33;;
55065;SDS011;40964;42.114;24.220;2022-12-18T15:22:18;7.88;;;3.35;;
55065;SDS011;40964;42.114;24.220;2022-12-18T15:24:45;8.77;;;4.05;;
55065;SDS011;40964;42.114;24.220;2022-12-18T15:32:32;7.72;;;3.35;;
55065;SDS011;40964;42.114;24.220;2022-12-18T15:37:33;9.07;;;4.10;;
55065;SDS011;40964;42.114;24.220;2022-12-18T15:39:59;10.13;;;3.65;;
55065;SDS011;40964;42.114;24.220;2022-12-18T15:42:25;6.50;;;3.35;;
55065;SDS011;40964;42.114;24.220;2022-12-18T15:45:12;8.02;;;3.58;;
55065;SDS011;40964;42.114;24.220;2022-12-18T15:47:38;6.75;;;3.50;;
55065;SDS011;40964;42.114;24.220;2022-12-18T15:50:04;9.50;;;4.53;;
55065;SDS011;40964;42.114;24.220;2022-12-18T15:52:31;6.88;;;3.78;;
55065;SDS011;40964;42.114;24.220;2022-12-18T15:55:05;7.38;;;3.85;;
55065;SDS011;40964;42.114;24.220;2022-12-18T15:57:54;7.88;;;3.55;;
55065;SDS011;40964;42.114;24.220;2022-12-18T16:00:19;6.78;;;3.45;;
55065;SDS011;40964;42.114;24.220;2022-12-18T16:02:44;7.90;;;3.80;;
55065;SDS011;40964;42.114;24.220;2022-12-18T16:05:19;8.43;;;4.53;;
55065;SDS011;40964;42.114;24.220;2022-12-18T16:10:30;11.38;;;4.15;;
55065;SDS011;40964;42.114;24.220;2022-12-18T16:12:55;9.75;;;4.65;;
55065;SDS011;40964;42.114;24.220;2022-12-18T16:15:21;9.48;;;4.80;;
55065;SDS011;40964;42.114;24.220;2022-12-18T16:17:47;6.70;;;3.70;;
55065;SDS011;40964;42.114;24.220;2022-12-18T16:20:17;9.43;;;4.57;;
55065;SDS011;40964;42.114;24.220;2022-12-18T16:22:45;8.10;;;4.18;;
55065;SDS011;40964;42.114;24.220;2022-12-18T16:25:19;9.38;;;4.57;;
55065;SDS011;40964;42.114;24.220;2022-12-18T16:27:46;11.45;;;4.88;;
55065;SDS011;40964;42.114;24.220;2022-12-18T16:30:15;13.52;;;5.30;;
55065;SDS011;40964;42.114;24.220;2022-12-18T16:32:42;12.23;;;4.88;;
55065;SDS011;40964;42.114;24.220;2022-12-18T16:35:09;12.48;;;5.43;;
55065;SDS011;40964;42.114;24.220;2022-12-18T16:37:36;10.27;;;5.95;;
55065;SDS011;40964;42.114;24.220;2022-12-18T16:40:03;12.50;;;5.45;;
55065;SDS011;40964;42.114;24.220;2022-12-18T16:42:29;10.10;;;4.55;;
55065;SDS011;40964;42.114;24.220;2022-12-18T16:44:54;13.05;;;5.30;;
55065;SDS011;40964;42.114;24.220;2022-12-18T16:47:20;11.10;;;4.55;;
55065;SDS011;40964;42.114;24.220;2022-12-18T16:49:45;11.02;;;5.72;;
55065;SDS011;40964;42.114;24.220;2022-12-18T16:52:11;11.30;;;5.57;;